createdAt,value
2023-01-30T00:00:42.466Z,-4.27
2023-01-30T00:01:14.037Z,-4.27
2023-01-30T00:01:46.473Z,-4.27
2023-01-30T00:02:17.979Z,-4.27
2023-01-30T00:02:50.115Z,-4.27
2023-01-30T00:03:22.117Z,-4.27
2023-01-30T00:03:53.947Z,-4.27
2023-01-30T00:04:25.963Z,-4.27
2023-01-30T00:04:58.155Z,-4.38
2023-01-30T00:05:30.240Z,-4.38
2023-01-30T00:06:02.370Z,-4.38
2023-01-30T00:06:33.784Z,-4.38
2023-01-30T00:07:05.870Z,-4.27
2023-01-30T00:07:38.021Z,-4.27
2023-01-30T00:08:10.054Z,-4.27
2023-01-30T00:08:41.973Z,-4.27
2023-01-30T00:08:58.012Z,-4.27
2023-01-30T00:09:29.713Z,-4.27
2023-01-30T00:09:45.933Z,-4.27
2023-01-30T00:10:18.444Z,-4.27
2023-01-30T00:10:49.565Z,-4.27
2023-01-30T00:11:21.710Z,-4.27
2023-01-30T00:11:53.595Z,-4.27
2023-01-30T00:12:25.693Z,-4.27
2023-01-30T00:12:57.431Z,-4.27
2023-01-30T00:13:29.469Z,-4.27
2023-01-30T00:13:45.676Z,-4.27
2023-01-30T00:14:29.513Z,-4.27
2023-01-30T00:15:04.531Z,-4.27
2023-01-30T00:15:33.271Z,-4.27
2023-01-30T00:16:05.643Z,-4.27
2023-01-30T00:16:37.584Z,-4.27
2023-01-30T00:17:09.427Z,-4.27
2023-01-30T00:17:41.504Z,-4.38
2023-01-30T00:18:13.349Z,-4.38
2023-01-30T00:18:45.399Z,-4.38
2023-01-30T00:19:17.511Z,-4.38
2023-01-30T00:19:49.223Z,-4.38
2023-01-30T00:20:21.715Z,-4.27
2023-01-30T00:20:53.341Z,-4.27
2023-01-30T00:21:25.329Z,-4.27
2023-01-30T00:21:57.142Z,-4.27
2023-01-30T00:22:13.194Z,-4.27
2023-01-30T00:23:00.976Z,-4.27
2023-01-30T00:23:29.208Z,-4.27
2023-01-30T00:24:01.650Z,-4.27
2023-01-30T00:24:33.020Z,-4.27
2023-01-30T00:25:05.536Z,-4.27
2023-01-30T00:25:37.374Z,-4.27
2023-01-30T00:26:09.000Z,-4.27
2023-01-30T00:26:41.207Z,-4.27
2023-01-30T00:27:12.982Z,-4.27
2023-01-30T00:27:29.158Z,-4.27
2023-01-30T00:28:12.932Z,-4.38
2023-01-30T00:28:44.960Z,-4.38
2023-01-30T00:29:16.920Z,-4.38
2023-01-30T00:29:57.774Z,-4.38
2023-01-30T00:30:21.304Z,-4.38
2023-01-30T00:30:53.091Z,-4.38
2023-01-30T00:31:24.704Z,-4.38
2023-01-30T00:31:56.861Z,-4.38
2023-01-30T00:32:12.827Z,-4.38
2023-01-30T00:32:44.707Z,-4.38
2023-01-30T00:33:28.804Z,-4.27
2023-01-30T00:34:00.662Z,-4.27
2023-01-30T00:34:32.789Z,-4.27
2023-01-30T00:35:05.166Z,-4.27
2023-01-30T00:35:36.689Z,-4.27
2023-01-30T00:36:08.583Z,-4.27
2023-01-30T00:36:40.536Z,-4.27
2023-01-30T00:37:07.763Z,-4.27
2023-01-30T00:37:40.818Z,-4.27
2023-01-30T00:38:12.570Z,-4.27
2023-01-30T00:38:44.407Z,-4.27
2023-01-30T00:39:16.741Z,-4.27
2023-01-30T00:39:48.445Z,-4.27
2023-01-30T00:40:21.127Z,-4.27
2023-01-30T00:40:52.360Z,-4.27
2023-01-30T00:41:24.294Z,-4.27
2023-01-30T00:41:56.555Z,-4.27
2023-01-30T00:42:28.429Z,-4.27
2023-01-30T00:43:00.171Z,-4.27
2023-01-30T00:43:32.369Z,-4.27
2023-01-30T00:44:04.421Z,-4.27
2023-01-30T00:44:36.375Z,-4.27
2023-01-30T00:45:09.364Z,-4.27
2023-01-30T00:45:40.190Z,-4.27
2023-01-30T00:46:12.291Z,-4.27
2023-01-30T00:46:44.118Z,-4.27
2023-01-30T00:47:16.196Z,-4.38
2023-01-30T00:47:48.122Z,-4.38
2023-01-30T00:48:20.124Z,-4.38
2023-01-30T00:48:52.143Z,-4.38
2023-01-30T00:49:23.985Z,-4.38
2023-01-30T00:49:56.020Z,-4.38
2023-01-30T00:50:14.769Z,-4.38
2023-01-30T00:50:43.987Z,-4.38
2023-01-30T00:51:28.094Z,-4.27
2023-01-30T00:51:59.880Z,-4.27
2023-01-30T00:52:31.941Z,-4.27
2023-01-30T00:53:04.020Z,-4.27
2023-01-30T00:53:35.959Z,-4.27
2023-01-30T00:54:07.810Z,-4.38
2023-01-30T00:54:39.655Z,-4.38
2023-01-30T00:54:56.567Z,-4.38
2023-01-30T00:55:40.039Z,-4.38
2023-01-30T00:56:12.011Z,-4.38
2023-01-30T00:56:43.692Z,-4.38
2023-01-30T00:57:15.601Z,-4.38
2023-01-30T00:57:47.821Z,-4.38
2023-01-30T00:58:19.708Z,-4.38
2023-01-30T00:58:51.718Z,-4.38
2023-01-30T00:59:23.603Z,-4.38
2023-01-30T00:59:55.614Z,-4.38
2023-01-30T01:00:28.125Z,-4.38
2023-01-30T01:00:59.466Z,-4.38
2023-01-30T01:01:31.575Z,-4.38
2023-01-30T01:02:03.730Z,-4.38
2023-01-30T01:02:35.540Z,-4.38
2023-01-30T01:03:07.489Z,-4.38
2023-01-30T01:03:39.410Z,-4.38
2023-01-30T01:04:11.609Z,-4.38
2023-01-30T01:04:43.691Z,-4.50
2023-01-30T01:05:15.979Z,-4.50
2023-01-30T01:05:47.651Z,-4.50
2023-01-30T01:06:19.269Z,-4.50
2023-01-30T01:06:51.434Z,-4.50
2023-01-30T01:07:23.257Z,-4.38
2023-01-30T01:07:55.220Z,-4.38
2023-01-30T01:08:27.420Z,-4.38
2023-01-30T01:08:59.312Z,-4.38
2023-01-30T01:09:31.128Z,-4.38
2023-01-30T01:10:03.980Z,-4.38
2023-01-30T01:10:35.177Z,-4.38
2023-01-30T01:11:07.232Z,-4.38
2023-01-30T01:11:39.180Z,-4.38
2023-01-30T01:11:55.196Z,-4.38
2023-01-30T01:12:39.068Z,-4.38
2023-01-30T01:13:11.251Z,-4.38
2023-01-30T01:13:42.964Z,-4.38
2023-01-30T01:14:14.964Z,-4.38
2023-01-30T01:14:47.120Z,-4.38
2023-01-30T01:15:19.681Z,-4.38
2023-01-30T01:15:51.145Z,-4.38
2023-01-30T01:16:22.953Z,-4.38
2023-01-30T01:16:54.807Z,-4.38
2023-01-30T01:17:27.017Z,-4.38
2023-01-30T01:17:58.928Z,-4.38
2023-01-30T01:18:30.839Z,-4.38
2023-01-30T01:19:03.818Z,-4.38
2023-01-30T01:19:34.796Z,-4.38
2023-01-30T01:20:06.966Z,-4.38
2023-01-30T01:20:38.827Z,-4.38
2023-01-30T01:21:10.840Z,-4.38
2023-01-30T01:21:42.723Z,-4.38
2023-01-30T01:22:14.548Z,-4.38
2023-01-30T01:22:46.704Z,-4.38
2023-01-30T01:23:18.650Z,-4.38
2023-01-30T01:23:50.914Z,-4.38
2023-01-30T01:24:22.519Z,-4.38
2023-01-30T01:24:54.592Z,-4.38
2023-01-30T01:25:11.088Z,-4.38
2023-01-30T01:25:42.489Z,-4.38
2023-01-30T01:26:26.878Z,-4.38
2023-01-30T01:26:58.306Z,-4.38
2023-01-30T01:27:30.490Z,-4.38
2023-01-30T01:28:03.317Z,-4.38
2023-01-30T01:28:34.428Z,-4.38
2023-01-30T01:29:06.342Z,-4.38
2023-01-30T01:29:38.331Z,-4.38
2023-01-30T01:30:11.602Z,-4.38
2023-01-30T01:30:42.396Z,-4.38
2023-01-30T01:31:14.293Z,-4.38
2023-01-30T01:31:46.252Z,-4.38
2023-01-30T01:32:18.366Z,-4.38
2023-01-30T01:32:50.303Z,-4.38
2023-01-30T01:33:22.074Z,-4.38
2023-01-30T01:33:54.191Z,-4.38
2023-01-30T01:34:10.204Z,-4.38
2023-01-30T01:34:54.177Z,-4.38
2023-01-30T01:35:26.712Z,-4.38
2023-01-30T01:35:58.003Z,-4.38
2023-01-30T01:36:52.607Z,-4.27
2023-01-30T01:37:02.906Z,-4.27
2023-01-30T01:37:34.018Z,-4.27
2023-01-30T01:38:05.988Z,-4.27
2023-01-30T01:38:38.113Z,-4.38
2023-01-30T01:39:10.032Z,-4.38
2023-01-30T01:39:42.120Z,-4.38
2023-01-30T01:40:14.009Z,-4.38
2023-01-30T01:40:45.901Z,-4.38
2023-01-30T01:41:18.036Z,-4.38
2023-01-30T01:41:49.894Z,-4.38
2023-01-30T01:42:21.825Z,-4.38
2023-01-30T01:42:37.892Z,-4.38
2023-01-30T01:43:21.789Z,-4.38
2023-01-30T01:43:53.772Z,-4.38
2023-01-30T01:44:25.954Z,-4.38
2023-01-30T01:44:57.783Z,-4.38
2023-01-30T01:45:30.050Z,-4.38
2023-01-30T01:46:02.155Z,-4.38
2023-01-30T01:46:33.709Z,-4.38
2023-01-30T01:47:05.659Z,-4.38
2023-01-30T01:47:37.558Z,-4.38
2023-01-30T01:47:53.747Z,-4.38
2023-01-30T01:48:37.536Z,-4.38
2023-01-30T01:49:09.590Z,-4.38
2023-01-30T01:49:41.557Z,-4.38
2023-01-30T01:50:13.685Z,-4.38
2023-01-30T01:50:45.521Z,-4.38
2023-01-30T01:51:17.627Z,-4.38
2023-01-30T01:51:49.257Z,-4.38
2023-01-30T01:52:21.492Z,-4.38
2023-01-30T01:52:53.448Z,-4.38
2023-01-30T01:53:25.394Z,-4.38
2023-01-30T01:53:57.553Z,-4.22
2023-01-30T01:54:29.264Z,-4.22
2023-01-30T01:55:02.274Z,-4.11
2023-01-30T01:55:33.496Z,-4.11
2023-01-30T01:56:05.238Z,-4.11
2023-01-30T01:56:37.174Z,-4.11
2023-01-30T01:57:09.235Z,-4.11
2023-01-30T01:57:41.556Z,-4.11
2023-01-30T01:58:13.052Z,-4.11
2023-01-30T01:58:45.125Z,-4.22
2023-01-30T01:59:17.320Z,-4.22
2023-01-30T01:59:49.110Z,-4.22
2023-01-30T02:00:21.498Z,-4.22
2023-01-30T02:00:53.281Z,-4.22
2023-01-30T02:01:25.090Z,-4.22
2023-01-30T02:01:57.256Z,-4.22
2023-01-30T02:02:28.937Z,-4.27
2023-01-30T02:03:01.233Z,-4.27
2023-01-30T02:03:33.017Z,-4.27
2023-01-30T02:04:05.066Z,-4.27
2023-01-30T02:04:36.894Z,-4.27
2023-01-30T02:04:53.098Z,-4.27
2023-01-30T02:05:37.226Z,-4.27
2023-01-30T02:06:08.893Z,-4.22
2023-01-30T02:06:40.981Z,-4.22
2023-01-30T02:07:12.777Z,-4.22
2023-01-30T02:07:44.789Z,-4.22
2023-01-30T02:08:16.898Z,-4.22
2023-01-30T02:08:48.916Z,-4.22
2023-01-30T02:09:20.829Z,-4.11
2023-01-30T02:09:52.640Z,-4.11
2023-01-30T02:10:09.021Z,-4.11
2023-01-30T02:10:52.791Z,-4.11
2023-01-30T02:11:24.808Z,-4.11
2023-01-30T02:11:56.717Z,-4.11
2023-01-30T02:12:28.528Z,-4.00
2023-01-30T02:13:00.617Z,-4.00
2023-01-30T02:13:32.794Z,-4.00
2023-01-30T02:14:04.590Z,-4.11
2023-01-30T02:14:36.547Z,-4.11
2023-01-30T02:15:09.467Z,-4.11
2023-01-30T02:15:40.461Z,-4.11
2023-01-30T02:16:12.605Z,-4.11
2023-01-30T02:16:44.370Z,-4.11
2023-01-30T02:17:16.454Z,-4.11
2023-01-30T02:17:48.689Z,-4.11
2023-01-30T02:18:20.318Z,-4.11
2023-01-30T02:18:52.231Z,-4.00
2023-01-30T02:19:24.468Z,-4.00
2023-01-30T02:19:56.521Z,-4.00
2023-01-30T02:20:28.444Z,-4.00
2023-01-30T02:21:00.280Z,-4.00
2023-01-30T02:21:32.315Z,-4.00
2023-01-30T02:22:04.359Z,-4.11
2023-01-30T02:22:36.246Z,-4.11
2023-01-30T02:22:52.260Z,-4.11
2023-01-30T02:23:36.198Z,-4.11
2023-01-30T02:24:08.200Z,-4.00
2023-01-30T02:24:40.188Z,-4.00
2023-01-30T02:25:12.451Z,-4.00
2023-01-30T02:25:44.073Z,-4.00
2023-01-30T02:26:16.116Z,-4.00
2023-01-30T02:26:48.245Z,-4.00
2023-01-30T02:27:19.809Z,-4.00
2023-01-30T02:27:52.081Z,-4.00
2023-01-30T02:28:24.049Z,-3.88
2023-01-30T02:28:56.047Z,-3.88
2023-01-30T02:29:28.050Z,-3.88
2023-01-30T02:29:59.765Z,-3.88
2023-01-30T02:30:32.581Z,-3.88
2023-01-30T02:31:04.715Z,-3.88
2023-01-30T02:31:35.817Z,-3.88
2023-01-30T02:32:07.836Z,-3.77
2023-01-30T02:32:39.818Z,-3.77
2023-01-30T02:33:12.020Z,-3.77
2023-01-30T02:33:43.628Z,-3.77
2023-01-30T02:34:15.740Z,-3.88
2023-01-30T02:34:47.874Z,-3.88
2023-01-30T02:35:20.252Z,-3.88
2023-01-30T02:35:51.579Z,-4.00
2023-01-30T02:36:07.634Z,-4.00
2023-01-30T02:36:39.528Z,-4.00
2023-01-30T02:37:24.383Z,-4.00
2023-01-30T02:37:56.085Z,-4.00
2023-01-30T02:38:27.671Z,-4.00
2023-01-30T02:38:59.423Z,-4.00
2023-01-30T02:39:31.547Z,-4.00
2023-01-30T02:40:04.444Z,-4.00
2023-01-30T02:40:35.312Z,-4.00
2023-01-30T02:40:52.126Z,-4.11
2023-01-30T02:41:35.336Z,-4.11
2023-01-30T02:42:07.574Z,-4.11
2023-01-30T02:42:39.367Z,-4.11
2023-01-30T02:43:11.374Z,-4.11
2023-01-30T02:43:43.328Z,-4.11
2023-01-30T02:44:15.302Z,-4.11
2023-01-30T02:44:47.531Z,-4.11
2023-01-30T02:45:19.874Z,-4.11
2023-01-30T02:45:51.332Z,-4.11
2023-01-30T02:46:23.161Z,-4.22
2023-01-30T02:46:55.226Z,-4.22
2023-01-30T02:47:27.205Z,-4.22
2023-01-30T02:47:58.979Z,-4.22
2023-01-30T02:48:31.341Z,-4.22
2023-01-30T02:49:03.926Z,-4.22
2023-01-30T02:49:34.942Z,-4.22
2023-01-30T02:49:51.230Z,-4.22
2023-01-30T02:50:23.210Z,-4.22
2023-01-30T02:50:39.075Z,-4.22
2023-01-30T02:51:11.020Z,-4.22
2023-01-30T02:51:42.929Z,-4.22
2023-01-30T02:52:16.258Z,-4.22
2023-01-30T02:52:47.112Z,-4.11
2023-01-30T02:53:18.964Z,-4.11
2023-01-30T02:53:50.870Z,-4.11
2023-01-30T02:54:07.008Z,-4.11
2023-01-30T02:54:38.810Z,-4.11
2023-01-30T02:55:23.091Z,-4.11
2023-01-30T02:55:54.974Z,-4.00
2023-01-30T02:56:26.851Z,-3.88
2023-01-30T02:56:58.703Z,-3.77
2023-01-30T02:57:30.850Z,-3.77
2023-01-30T02:58:03.656Z,-3.77
2023-01-30T02:58:34.509Z,-3.77
2023-01-30T02:58:50.878Z,-3.77
2023-01-30T02:59:34.469Z,-3.77
2023-01-30T03:00:08.095Z,-3.77
2023-01-30T03:00:38.663Z,-3.77
2023-01-30T03:01:10.493Z,-3.77
2023-01-30T03:01:42.557Z,-3.77
2023-01-30T03:02:14.758Z,-3.88
2023-01-30T03:02:46.642Z,-3.88
2023-01-30T03:03:18.549Z,-4.00
2023-01-30T03:03:50.412Z,-4.00
2023-01-30T03:04:22.505Z,-4.11
2023-01-30T03:04:54.168Z,-4.11
2023-01-30T03:05:26.622Z,-4.11
2023-01-30T03:05:58.402Z,-4.11
2023-01-30T03:06:30.534Z,-4.11
2023-01-30T03:07:02.920Z,-4.11
2023-01-30T03:07:34.252Z,-4.11
2023-01-30T03:08:06.413Z,-4.11
2023-01-30T03:08:38.188Z,-4.00
2023-01-30T03:09:10.311Z,-4.00
2023-01-30T03:09:42.258Z,-4.00
2023-01-30T03:10:14.299Z,-4.00
2023-01-30T03:10:46.253Z,-4.00
2023-01-30T03:11:18.243Z,-4.00
2023-01-30T03:11:50.037Z,-4.00
2023-01-30T03:12:06.144Z,-4.11
2023-01-30T03:12:38.025Z,-4.11
2023-01-30T03:13:22.254Z,-4.11
2023-01-30T03:13:53.862Z,-4.11
2023-01-30T03:14:25.852Z,-4.11
2023-01-30T03:14:58.084Z,-4.11
2023-01-30T03:15:30.386Z,-4.11
2023-01-30T03:16:02.676Z,-4.00
2023-01-30T03:16:33.843Z,-4.00
2023-01-30T03:17:06.089Z,-3.88
2023-01-30T03:17:37.919Z,-3.88
2023-01-30T03:18:09.884Z,-3.77
2023-01-30T03:18:41.899Z,-3.72
2023-01-30T03:19:13.668Z,-3.72
2023-01-30T03:19:45.833Z,-3.72
2023-01-30T03:20:18.008Z,-3.61
2023-01-30T03:20:49.721Z,-3.61
2023-01-30T03:21:05.839Z,-3.61
2023-01-30T03:21:49.649Z,-3.50
2023-01-30T03:22:21.984Z,-3.38
2023-01-30T03:22:53.598Z,-3.27
2023-01-30T03:23:25.628Z,-3.27
2023-01-30T03:23:57.760Z,-3.22
2023-01-30T03:24:29.469Z,-3.00
2023-01-30T03:25:02.119Z,-3.00
2023-01-30T03:25:33.670Z,-3.00
2023-01-30T03:26:05.673Z,-3.00
2023-01-30T03:26:37.857Z,-3.00
2023-01-30T03:27:09.495Z,-3.00
2023-01-30T03:27:41.536Z,-3.00
2023-01-30T03:28:13.493Z,-3.00
2023-01-30T03:28:45.357Z,-3.00
2023-01-30T03:29:17.424Z,-2.88
2023-01-30T03:29:49.373Z,-2.88
2023-01-30T03:30:22.038Z,-2.88
2023-01-30T03:30:53.300Z,-2.77
2023-01-30T03:31:25.452Z,-2.72
2023-01-30T03:31:57.522Z,-2.72
2023-01-30T03:32:29.085Z,-2.72
2023-01-30T03:33:01.391Z,-2.72
2023-01-30T03:33:17.423Z,-2.61
2023-01-30T03:33:49.226Z,-2.61
2023-01-30T03:34:05.308Z,-2.61
2023-01-30T03:34:37.246Z,-2.61
2023-01-30T03:35:09.357Z,-2.61
2023-01-30T03:35:41.140Z,-2.61
2023-01-30T03:36:13.192Z,-2.61
2023-01-30T03:36:44.903Z,-2.61
2023-01-30T03:37:17.138Z,-2.61
2023-01-30T03:37:49.009Z,-2.61
2023-01-30T03:38:21.163Z,-2.61
2023-01-30T03:38:52.841Z,-2.61
2023-01-30T03:39:24.888Z,-2.50
2023-01-30T03:39:57.163Z,-2.50
2023-01-30T03:40:29.105Z,-2.50
2023-01-30T03:41:01.128Z,-2.50
2023-01-30T03:41:32.809Z,-2.50
2023-01-30T03:41:48.996Z,-2.50
2023-01-30T03:42:21.189Z,-2.50
2023-01-30T03:42:37.184Z,-2.50
2023-01-30T03:43:08.723Z,-2.38
2023-01-30T03:43:40.821Z,-2.38
2023-01-30T03:44:12.939Z,-2.38
2023-01-30T03:44:44.762Z,-2.38
2023-01-30T03:45:18.679Z,-2.38
2023-01-30T03:45:48.829Z,-2.38
2023-01-30T03:46:05.174Z,-2.38
2023-01-30T03:46:36.697Z,-2.38
2023-01-30T03:47:20.643Z,-2.38
2023-01-30T03:47:52.690Z,-2.38
2023-01-30T03:48:08.657Z,-2.27
2023-01-30T03:48:40.787Z,-2.38
2023-01-30T03:49:24.646Z,-2.38
2023-01-30T03:49:56.633Z,-2.38
2023-01-30T03:50:28.757Z,-2.38
2023-01-30T03:51:00.672Z,-2.38
2023-01-30T03:51:32.510Z,-2.38
2023-01-30T03:52:04.979Z,-2.38
2023-01-30T03:52:36.461Z,-2.38
2023-01-30T03:53:08.368Z,-2.38
2023-01-30T03:53:40.558Z,-2.27
2023-01-30T03:54:12.465Z,-2.27
2023-01-30T03:54:44.142Z,-2.22
2023-01-30T03:55:17.016Z,-2.22
2023-01-30T03:55:48.451Z,-2.22
2023-01-30T03:56:20.330Z,-2.22
2023-01-30T03:56:52.204Z,-2.22
2023-01-30T03:57:24.206Z,-2.22
2023-01-30T03:57:56.219Z,-2.22
2023-01-30T03:58:28.299Z,-4.27
2023-01-30T03:59:00.143Z,-2.22
2023-01-30T03:59:32.085Z,-2.22
2023-01-30T03:59:48.348Z,-2.11
2023-01-30T04:00:20.395Z,-2.11
2023-01-30T04:00:36.345Z,-2.11
2023-01-30T04:01:08.064Z,-2.11
2023-01-30T04:01:40.178Z,-2.11
2023-01-30T04:02:12.266Z,-4.00
2023-01-30T04:02:44.076Z,-2.11
2023-01-30T04:03:15.843Z,-2.11
2023-01-30T04:03:47.950Z,-2.00
2023-01-30T04:04:19.914Z,-1.88
2023-01-30T04:04:52.133Z,-1.88
2023-01-30T04:05:24.079Z,-1.88
2023-01-30T04:05:55.976Z,-1.88
2023-01-30T04:06:28.035Z,-1.88
2023-01-30T04:06:59.823Z,-1.88
2023-01-30T04:07:31.805Z,-1.88
2023-01-30T04:07:47.973Z,-1.88
2023-01-30T04:08:31.975Z,-1.88
2023-01-30T04:09:04.394Z,-1.88
2023-01-30T04:09:35.909Z,-1.88
2023-01-30T04:10:07.975Z,-1.88
2023-01-30T04:10:39.844Z,-1.88
2023-01-30T04:11:11.633Z,-1.88
2023-01-30T04:11:43.493Z,-1.77
2023-01-30T04:12:15.679Z,-1.77
2023-01-30T04:12:47.643Z,-1.77
2023-01-30T04:13:19.675Z,-1.77
2023-01-30T04:13:51.560Z,-1.77
2023-01-30T04:14:23.414Z,-1.77
2023-01-30T04:14:55.576Z,-1.77
2023-01-30T04:15:27.956Z,-1.77
2023-01-30T04:15:59.212Z,-1.77
2023-01-30T04:16:31.639Z,-1.77
2023-01-30T04:17:04.125Z,-1.77
2023-01-30T04:17:35.295Z,-1.77
2023-01-30T04:18:07.533Z,-1.77
2023-01-30T04:18:39.226Z,-1.72
2023-01-30T04:19:11.370Z,-1.72
2023-01-30T04:19:43.432Z,-1.72
2023-01-30T04:20:15.363Z,-1.72
2023-01-30T04:20:47.275Z,-1.72
2023-01-30T04:21:04.103Z,-1.72
2023-01-30T04:21:35.210Z,-1.72
2023-01-30T04:22:19.167Z,-1.72
2023-01-30T04:22:51.019Z,-1.72
2023-01-30T04:23:07.498Z,-1.72
2023-01-30T04:23:39.003Z,-1.72
2023-01-30T04:24:23.074Z,-1.72
2023-01-30T04:24:55.151Z,-1.72
2023-01-30T04:25:27.151Z,-1.72
2023-01-30T04:25:59.111Z,-1.72
2023-01-30T04:26:31.192Z,-1.72
2023-01-30T04:27:03.638Z,-1.72
2023-01-30T04:27:34.907Z,-1.72
2023-01-30T04:28:07.104Z,-1.72
2023-01-30T04:28:38.884Z,-1.72
2023-01-30T04:29:11.196Z,-1.72
2023-01-30T04:29:42.761Z,-1.72
2023-01-30T04:30:16.255Z,-1.61
2023-01-30T04:30:47.100Z,-1.61
2023-01-30T04:31:18.935Z,-1.61
2023-01-30T04:31:50.719Z,-1.61
2023-01-30T04:32:22.949Z,-1.61
2023-01-30T04:32:54.726Z,-1.61
2023-01-30T04:33:26.753Z,-1.61
2023-01-30T04:33:58.627Z,-1.61
2023-01-30T04:34:30.686Z,-1.61
2023-01-30T04:35:03.451Z,-1.50
2023-01-30T04:35:34.609Z,-1.50
2023-01-30T04:36:06.591Z,-1.50
2023-01-30T04:36:38.457Z,-1.50
2023-01-30T04:37:10.769Z,-1.50
2023-01-30T04:37:42.651Z,-1.50
2023-01-30T04:38:14.323Z,-1.50
2023-01-30T04:38:46.569Z,-1.50
2023-01-30T04:39:20.470Z,-1.50
2023-01-30T04:39:50.499Z,-1.50
2023-01-30T04:40:22.756Z,-1.50
2023-01-30T04:40:54.359Z,-1.50
2023-01-30T04:41:26.420Z,-1.50
2023-01-30T04:41:58.479Z,-1.61
2023-01-30T04:42:30.228Z,-1.61
2023-01-30T04:42:46.465Z,-1.61
2023-01-30T04:43:30.342Z,-1.61
2023-01-30T04:44:02.918Z,-1.61
2023-01-30T04:44:34.316Z,-1.61
2023-01-30T04:45:07.208Z,-1.61
2023-01-30T04:45:38.410Z,-1.61
2023-01-30T04:46:10.295Z,-1.61
2023-01-30T04:46:42.157Z,-1.61
2023-01-30T04:47:14.064Z,-1.61
2023-01-30T04:47:46.139Z,-1.61
2023-01-30T04:48:02.633Z,-1.61
2023-01-30T04:48:46.294Z,-1.61
2023-01-30T04:49:18.213Z,-1.61
2023-01-30T04:49:49.936Z,-4.72
2023-01-30T04:50:22.426Z,-1.50
2023-01-30T04:50:53.991Z,-1.50
2023-01-30T04:51:26.164Z,-1.50
2023-01-30T04:51:57.860Z,-1.50
2023-01-30T04:52:29.812Z,-1.38
2023-01-30T04:53:02.415Z,-1.38
2023-01-30T04:53:33.938Z,-1.38
2023-01-30T04:54:05.700Z,-1.38
2023-01-30T04:54:37.864Z,-1.38
2023-01-30T04:55:10.129Z,-1.27
2023-01-30T04:55:41.902Z,-3.50
2023-01-30T04:56:13.641Z,-1.27
2023-01-30T04:56:45.931Z,-1.27
2023-01-30T04:57:17.756Z,-1.27
2023-01-30T04:57:49.855Z,-1.27
2023-01-30T04:58:21.823Z,-3.38
2023-01-30T04:58:53.573Z,-1.27
2023-01-30T04:59:25.765Z,-1.22
2023-01-30T04:59:57.706Z,-1.22
2023-01-30T05:00:14.561Z,-1.22
2023-01-30T05:00:45.613Z,-1.22
2023-01-30T05:01:01.981Z,-1.22
2023-01-30T05:01:33.666Z,-1.22
2023-01-30T05:02:05.675Z,-1.22
2023-01-30T05:02:37.593Z,-1.22
2023-01-30T05:03:09.553Z,-1.22
2023-01-30T05:03:41.511Z,-1.22
2023-01-30T05:04:13.295Z,-1.22
2023-01-30T05:04:45.481Z,-1.22
2023-01-30T05:05:02.181Z,-1.11
2023-01-30T05:05:45.648Z,-1.11
2023-01-30T05:06:17.741Z,-1.11
2023-01-30T05:06:49.309Z,-1.11
2023-01-30T05:07:21.301Z,-1.11
2023-01-30T05:07:53.398Z,-1.11
2023-01-30T05:08:25.308Z,-1.11
2023-01-30T05:08:57.227Z,-1.11
2023-01-30T05:09:29.161Z,-1.11
2023-01-30T05:09:45.396Z,-1.11
2023-01-30T05:10:17.763Z,-1.11
2023-01-30T05:10:33.228Z,-1.11
2023-01-30T05:11:05.349Z,-1.11
2023-01-30T05:11:37.299Z,-1.11
2023-01-30T05:12:08.990Z,-1.11
2023-01-30T05:12:41.468Z,-1.11
2023-01-30T05:13:12.994Z,-1.11
2023-01-30T05:13:44.937Z,-1.00
2023-01-30T05:14:17.347Z,-1.00
2023-01-30T05:14:49.039Z,-1.00
2023-01-30T05:15:21.308Z,-1.00
2023-01-30T05:15:53.017Z,-2.88
2023-01-30T05:16:24.922Z,-3.22
2023-01-30T05:16:57.067Z,-1.00
2023-01-30T05:17:28.891Z,-1.00
2023-01-30T05:17:44.959Z,-1.00
2023-01-30T05:18:28.782Z,-1.00
2023-01-30T05:19:01.052Z,-1.00
2023-01-30T05:19:32.923Z,-1.00
2023-01-30T05:20:05.147Z,-1.00
2023-01-30T05:20:36.921Z,-1.00
2023-01-30T05:21:08.780Z,-1.00
2023-01-30T05:21:41.013Z,-1.00
2023-01-30T05:22:12.575Z,-1.00
2023-01-30T05:22:44.620Z,-1.00
2023-01-30T05:23:00.828Z,-1.00
2023-01-30T05:23:44.690Z,-1.00
2023-01-30T05:24:17.030Z,-.88
2023-01-30T05:24:48.568Z,-.88
2023-01-30T05:25:21.041Z,-.88
2023-01-30T05:25:52.769Z,-2.77
2023-01-30T05:26:24.578Z,-.88
2023-01-30T05:26:56.454Z,-.88
2023-01-30T05:27:28.737Z,-.88
2023-01-30T05:28:00.518Z,-.77
2023-01-30T05:28:32.598Z,-.77
2023-01-30T05:29:04.819Z,-.77
2023-01-30T05:29:36.303Z,-.77
2023-01-30T05:30:09.446Z,-.77
2023-01-30T05:30:40.517Z,-.77
2023-01-30T05:31:12.292Z,-.77
2023-01-30T05:31:44.393Z,-.77
2023-01-30T05:32:16.610Z,-.77
2023-01-30T05:32:48.263Z,-.77
2023-01-30T05:33:20.157Z,-.77
2023-01-30T05:33:52.424Z,-.77
2023-01-30T05:34:24.182Z,-.77
2023-01-30T05:34:56.463Z,-.77
2023-01-30T05:35:28.406Z,-.77
2023-01-30T05:35:44.255Z,-.77
2023-01-30T05:36:28.163Z,-.77
2023-01-30T05:37:00.046Z,-.77
2023-01-30T05:37:32.161Z,-.77
2023-01-30T05:38:04.172Z,-.77
2023-01-30T05:38:35.957Z,-.77
2023-01-30T05:39:08.228Z,-.72
2023-01-30T05:39:39.806Z,-.72
2023-01-30T05:40:12.117Z,-.72
2023-01-30T05:40:43.982Z,-.72
2023-01-30T05:41:16.056Z,-.72
2023-01-30T05:41:47.819Z,-.72
2023-01-30T05:42:19.954Z,-.72
2023-01-30T05:42:51.781Z,-.72
2023-01-30T05:43:23.887Z,-.72
2023-01-30T05:43:55.793Z,-.72
2023-01-30T05:44:27.735Z,-.72
2023-01-30T05:44:59.767Z,-.72
2023-01-30T05:45:32.296Z,-.72
2023-01-30T05:46:04.174Z,-.72
2023-01-30T05:46:35.839Z,-.72
2023-01-30T05:47:07.837Z,-.72
2023-01-30T05:47:39.572Z,-.72
2023-01-30T05:48:11.769Z,-.72
2023-01-30T05:48:43.618Z,-.72
2023-01-30T05:48:59.695Z,-.72
2023-01-30T05:49:31.755Z,-.72
2023-01-30T05:50:15.841Z,-.72
2023-01-30T05:50:47.632Z,-.72
2023-01-30T05:51:19.473Z,-.72
2023-01-30T05:51:51.665Z,-.72
2023-01-30T05:52:23.480Z,-.72
2023-01-30T05:52:55.474Z,-.72
2023-01-30T05:53:27.303Z,-.72
2023-01-30T05:53:43.569Z,-.72
2023-01-30T05:54:27.315Z,-.72
2023-01-30T05:54:59.352Z,-.72
2023-01-30T05:55:31.824Z,-.72
2023-01-30T05:56:03.753Z,-.72
2023-01-30T05:56:35.253Z,-3.11
2023-01-30T05:57:07.494Z,-.72
2023-01-30T05:57:39.222Z,-.72
2023-01-30T05:58:11.272Z,-.72
2023-01-30T05:58:43.179Z,-3.61
2023-01-30T05:59:15.207Z,-.72
2023-01-30T05:59:47.345Z,-.61
2023-01-30T06:00:19.698Z,-.61
2023-01-30T06:00:51.179Z,-.61
2023-01-30T06:01:23.094Z,-.61
2023-01-30T06:01:54.809Z,-.61
2023-01-30T06:02:27.188Z,-.61
2023-01-30T06:02:43.183Z,-.61
2023-01-30T06:03:15.002Z,-.61
2023-01-30T06:03:31.095Z,-.61
2023-01-30T06:04:03.781Z,-.61
2023-01-30T06:04:34.880Z,-.61
2023-01-30T06:05:07.167Z,-.61
2023-01-30T06:05:38.929Z,-.61
2023-01-30T06:06:11.160Z,-.61
2023-01-30T06:06:42.773Z,-.61
2023-01-30T06:06:58.927Z,-.61
2023-01-30T06:07:30.704Z,-.61
2023-01-30T06:08:14.919Z,-.61
2023-01-30T06:08:46.715Z,-.61
2023-01-30T06:09:18.592Z,-.61
2023-01-30T06:09:50.725Z,-.61
2023-01-30T06:10:23.088Z,-.61
2023-01-30T06:10:54.476Z,-.61
2023-01-30T06:11:26.854Z,-2.88
2023-01-30T06:11:58.687Z,-2.27
2023-01-30T06:12:30.628Z,-.50
2023-01-30T06:13:03.262Z,-.50
2023-01-30T06:13:34.473Z,-.50
2023-01-30T06:14:06.568Z,-.50
2023-01-30T06:14:38.645Z,-.50
2023-01-30T06:15:11.689Z,-.50
2023-01-30T06:15:42.620Z,-.50
2023-01-30T06:15:58.925Z,-.50
2023-01-30T06:16:42.618Z,-.50
2023-01-30T06:17:14.536Z,-.50
2023-01-30T06:17:46.275Z,-.50
2023-01-30T06:18:18.546Z,-.50
2023-01-30T06:18:50.492Z,-.50
2023-01-30T06:19:22.504Z,-.50
2023-01-30T06:19:54.277Z,-.50
2023-01-30T06:20:26.557Z,-.50
2023-01-30T06:20:42.469Z,-.50
2023-01-30T06:21:14.205Z,-.50
2023-01-30T06:21:30.275Z,-.50
2023-01-30T06:22:02.857Z,-.50
2023-01-30T06:22:34.117Z,-.50
2023-01-30T06:23:06.172Z,-2.27
2023-01-30T06:23:38.271Z,-.50
2023-01-30T06:24:09.895Z,-.50
2023-01-30T06:24:42.572Z,-.50
2023-01-30T06:24:58.201Z,-.50
2023-01-30T06:25:30.234Z,-.50
2023-01-30T06:26:14.225Z,-.50
2023-01-30T06:26:45.895Z,-.50
2023-01-30T06:27:18.110Z,-.50
2023-01-30T06:27:49.960Z,-.50
2023-01-30T06:28:22.045Z,-.50
2023-01-30T06:28:53.893Z,-.50
2023-01-30T06:29:25.797Z,-.50
2023-01-30T06:29:57.784Z,-.50
2023-01-30T06:30:30.287Z,-3.27
2023-01-30T06:31:02.678Z,-.61
2023-01-30T06:31:33.830Z,-.61
2023-01-30T06:32:05.858Z,-.61
2023-01-30T06:32:37.940Z,-.61
2023-01-30T06:33:09.561Z,-.61
2023-01-30T06:33:41.933Z,-.61
2023-01-30T06:33:57.773Z,-.61
2023-01-30T06:34:42.140Z,-.61
2023-01-30T06:35:14.162Z,-.61
2023-01-30T06:35:45.423Z,-.61
2023-01-30T06:36:17.846Z,-.61
2023-01-30T06:36:49.643Z,-.61
2023-01-30T06:37:21.862Z,-.61
2023-01-30T06:37:53.585Z,-.61
2023-01-30T06:38:26.251Z,-.72
2023-01-30T06:38:57.595Z,-.72
2023-01-30T06:39:29.447Z,-.72
2023-01-30T06:40:03.131Z,-.72
2023-01-30T06:40:33.473Z,-.72
2023-01-30T06:41:05.591Z,-.72
2023-01-30T06:41:37.512Z,-3.22
2023-01-30T06:42:09.375Z,-2.88
2023-01-30T06:42:41.613Z,-.72
2023-01-30T06:43:13.336Z,-2.61
2023-01-30T06:43:45.361Z,-2.50
2023-01-30T06:44:17.371Z,-2.50
2023-01-30T06:44:49.184Z,-2.50
2023-01-30T06:45:21.758Z,-.61
2023-01-30T06:45:53.437Z,-2.27
2023-01-30T06:46:25.065Z,-.61
2023-01-30T06:46:41.545Z,-.61
2023-01-30T06:47:25.029Z,-.61